Virgilina, VA (24598)

00:31 EDT le 31 août 2014 (GMT -0400)
Oak Hill | Change Station
CLOSE
Current Station
Stations météorologiques personnelles
Location: Oxford, NC
Altitude: 499 ft
Stations météo à proximité

Alt. 499 ft 36.44 °N, 78.73 °W | Updated 9 minutes ago

Ciel dégagé
Ciel dégagé
71.6 ° F
Paraît 71.6 ° F
N
0.0
Vent Variable Vent de Est

Aujourd'hui
Haut(e) -- | Bas -- ° F
--% Risque de précip.
Hier
Haut(e) -- | Bas -- ° F
Precip. -- pouce
6:45 AM 7:44 PM
Lune montante, 27% visible
Pression 30.18 pouce
Visibilité 10.0 Miles terrestres
Nuages Ciel dégagé
Point de rosée 71 ° F
Humidité 97%
Précipitations -9999.00 pouce
Profondeur de la couche neigeuse Non disponible.
UV 0 sur 12
Pollen 8.60 sur 12
Qualité de l'air Non disponible.
Flu Activity Non disponible.
METAR KHNZ 310415Z AUTO 17004KT 10SM CLR 24/21 A3018 RMK AO2 T02350213

More Conditions Fewer Conditions

Pression 30.18 pouce
Visibilité 10.0 Miles terrestres
Nuages Ciel dégagé
Point de rosée 71 ° F
Humidité 97%
Précipitations -9999.00 pouce
Profondeur de la couche neigeuse Non disponible.
UV 0 sur 12
Pollen 8.60 sur 12
Qualité de l'air Non disponible.
Flu Activity Non disponible.
METAR KHNZ 310415Z AUTO 17004KT 10SM CLR 24/21 A3018 RMK AO2 T02350213

More Conditions Fewer Conditions

10-Day Weather Forecast

Almanac

Astronomie

Aug. 31, 2014 Lever Coucher
Temps réel 06:45 EDT 19:44 EDT
Crépuscule civil 06:18 EDT 20:11 EDT
Crépuscule nautique 05:47 EDT 20:42 EDT
Crépuscule astronomique 05:14 EDT 21:14 EDT
Lune 12:20 EDT 23:08 EDT
Durée de lumière visible 13h 52m
Longueur du jour
12h 59m
Tomorrow will be 2m 13s shorter.
Lune montante, 27% of the Moon is Illuminated
Aujourd'hui
Lune montante
Sep 2
Premier quartier
Sep 8
Pleine lune
Sep 15
Dernier quartier
Sep 24
Nouveau

Les extrêmes de température d’hier

State Highs State Lows

Community

WunderPhotos

Upload Photos

1,748,782 Photos téléchargées !

Nearby

Épaisseur de neige

Station Depth Altitude
Pas de nouvelles chutes de neige

Activité sismique

Ville Distance Mag. Time & Date
No recent earthquake activity has been reported nearby.
Minimum magnitude displayed is 2.5.

Températures des eaux côtières

Lieu Température
Aucun rapport de station

Stations météo à proximité